Caribbean Princess — ZCDG8 — position and weather

sailwx.info

Track history (hours):
 
Tides and Currents Weather Stations Pressure Air Temp Water Temp Dewpoint Dewpoint Depression Visibility Wind Speed Wind Dir Waves Ship Positions

Caribbean Princess

Operator: Princess Cruises

Last reported at 2015-Jun-30 09:33 UTC. Time now 2015-Jun-30 09:55 UTC.
Position N 55°43' E 012°37'.

Type: Passenger vessel. MMSI: 310423000.

Date/timePositionNaut miles runAvg speedWind from/ knotsBaromVisibWave heightAir tempDewpointWater temp
2015-Jun-30 09:33N 55°43' E 012°37'0 0.0
2015-Jun-30 08:33N 55°43' E 012°37'0 0.0
2015-Jun-30 07:33N 55°43' E 012°37'0 0.0
2015-Jun-30 06:33N 55°43' E 012°37'0 0.3
2015-Jun-30 05:33N 55°43' E 012°38'8 8.1
2015-Jun-30 04:34N 55°51' E 012°41'1414.4
2015-Jun-30 03:34N 56°05' E 012°35'1413.9
2015-Jun-30 02:33N 56°13' E 012°15'1414.1
2015-Jun-30 01:33N 56°24' E 011°60'1818.0
2015-Jun-30 00:33N 56°42' E 011°53'1817.6
2015-Jun-29 23:33N 56°58' E 011°43'1817.6
2015-Jun-29 22:33N 57°15' E 011°32'1717.0
2015-Jun-29 21:34N 57°31' E 011°21'1716.7
2015-Jun-29 20:33N 57°45' E 011°04'1717.0
2015-Jun-29 19:33N 57°50' E 010°34'1818.2
2015-Jun-29 18:33N 57°52' E 010°00'3818.8
2015-Jun-29 16:33N 57°33' E 008°59'22818.5
2015-Jun-29 04:13N 54°29' E 004°56'1420.7
2015-Jun-29 03:33N 54°17' E 004°46'2120.6
2015-Jun-29 02:33N 53°57' E 004°37'14719.8
2015-Jun-28 19:07N 51°46' E 002°44'1119.4
2015-Jun-28 18:33N 51°35' E 002°43'1413.5
2015-Jun-28 17:33N 51°22' E 002°48'1414.2
2015-Jun-28 16:34N 51°23' E 003°10'3 2.5
2015-Jun-28 15:33N 51°20' E 003°12'0 0.0
2015-Jun-28 14:32N 51°20' E 003°12'0 0.0
2015-Jun-28 13:33N 51°20' E 003°12'0 0.0
2015-Jun-28 12:33N 51°20' E 003°12'0 0.0
2015-Jun-28 11:30N 51°20' E 003°12'0 0.0
2015-Jun-28 10:33N 51°20' E 003°12'0 0.0
2015-Jun-28 09:30N 51°20' E 003°12'0 0.0
2015-Jun-28 08:33N 51°20' E 003°12'0 0.0
2015-Jun-28 07:33N 51°20' E 003°12'0 0.0
2015-Jun-28 06:32N 51°20' E 003°12'0 0.3
2015-Jun-28 05:34N 51°21' E 003°12'8 8.0
2015-Jun-28 04:33N 51°24' E 003°00'1313.4
2015-Jun-28 03:34N 51°22' E 002°39'1312.6
2015-Jun-28 02:33N 51°19' E 002°20'1615.9
2015-Jun-28 01:33N 51°12' E 001°57'1717.2
2015-Jun-28 00:33N 51°01' E 001°36'1717.4
2015-Jun-27 23:33N 50°46' E 001°21'1717.3
2015-Jun-27 22:33N 50°33' E 001°04'1817.5
2015-Jun-27 21:33N 50°27' E 000°38'1817.9
2015-Jun-27 20:33N 50°23' E 000°11'1818.2
2015-Jun-27 19:33N 50°22' W 000°18'1918.9
2015-Jun-27 18:33N 50°30' W 000°44'1716.7
2015-Jun-27 17:33N 50°43' W 001°01'1211.8
2015-Jun-27 16:33N 50°48' W 001°17'8 8.0
2015-Jun-27 15:33N 50°54' W 001°26'0 0.3
2015-Jun-27 14:29N 50°54' W 001°26'0 0.0
2015-Jun-27 13:32N 50°54' W 001°26'0 0.0
2015-Jun-27 12:23N 50°54' W 001°26'0 0.0
2015-Jun-27 11:29N 50°54' W 001°26'0 0.0
2015-Jun-27 10:20N 50°54' W 001°26'0 0.0
2015-Jun-27 09:29N 50°54' W 001°26'0 0.0
2015-Jun-27 08:32N 50°54' W 001°26'0 0.0
2015-Jun-27 07:32N 50°54' W 001°26'0 0.0
2015-Jun-27 06:32N 50°54' W 001°26'0 0.0
2015-Jun-27 05:33N 50°54' W 001°26'7 6.6
2015-Jun-27 04:33N 50°50' W 001°18'1111.0
2015-Jun-27 03:33N 50°44' W 001°04'1211.9
2015-Jun-27 02:34N 50°37' W 000°49'1413.8
2015-Jun-27 01:33N 50°34' W 000°27'1717.3
2015-Jun-27 00:34N 50°33' W 000°00'1818.2
2015-Jun-26 23:33N 50°37' E 000°28'2019.6
2015-Jun-26 22:33N 50°45' E 000°56'1918.6
2015-Jun-26 21:34N 50°56' E 001°20'1817.6
2015-Jun-26 20:34N 51°09' E 001°39'1717.4
2015-Jun-26 19:34N 51°23' E 001°54'1918.5
2015-Jun-26 18:33N 51°38' E 002°13'2219.3
2015-Jun-26 17:26N 51°54' E 002°36'2120.2
2015-Jun-26 16:23N 52°15' E 002°38'1721.0
2015-Jun-26 15:33N 52°32' E 002°38'2120.8
2015-Jun-26 14:33N 52°53' E 002°38'2020.0
2015-Jun-26 13:33N 53°13' E 002°43'2019.5
2015-Jun-26 12:33N 53°31' E 002°54'1919.1
2015-Jun-26 11:34N 53°49' E 003°08'2019.5
2015-Jun-26 10:33N 54°05' E 003°27'1919.7
2015-Jun-26 09:33N 54°24' E 003°29'31820.4
2015-Jun-25 18:00N 59°42' E 004°00'   270 / 201020.110.8 1.011.0 6.814.0
2015-Jun-23 06:00N 66°06' E 010°12'143 6.0 010 / 171009.310.8 11.0 5.612.0
2015-Jun-22 06:17N 68°05' E 013°36'15611.2
2015-Jun-21 16:28N 69°47' E 019°04'6 6.4
2015-Jun-21 15:31N 69°41' E 018°60'0 0.0
2015-Jun-21 14:31N 69°41' E 018°60'0 0.0
2015-Jun-21 12:28N 69°41' E 018°60'0 0.0
2015-Jun-21 11:31N 69°41' E 018°60'0 0.0
2015-Jun-21 10:31N 69°41' E 018°60'0 0.0
2015-Jun-21 09:28N 69°41' E 018°60'0 0.0
2015-Jun-21 08:31N 69°41' E 018°60'0 0.0
2015-Jun-21 07:31N 69°41' E 018°60'0 0.3
2015-Jun-21 06:33N 69°40' E 018°60'  
Track history (hours):
 
Tides and Currents Weather Stations Pressure Air Temp Water Temp Dewpoint Dewpoint Depression Visibility Wind Speed Wind Dir Waves Ship Positions

Caribbean Princess

Operator: Princess Cruises

Last reported at 2015-Jun-30 09:33 UTC. Time now 2015-Jun-30 09:55 UTC.
Position N 55°43' E 012°37'.

Type: Passenger vessel. MMSI: 310423000.

Date/timePositionNaut miles runAvg speedWind from/ knotsBaromVisibWave heightAir tempDewpointWater temp
2015-Jun-30 09:33N 55°43' E 012°37'0 0.0
2015-Jun-30 08:33N 55°43' E 012°37'0 0.0
2015-Jun-30 07:33N 55°43' E 012°37'0 0.0
2015-Jun-30 06:33N 55°43' E 012°37'0 0.3
2015-Jun-30 05:33N 55°43' E 012°38'8 8.1
2015-Jun-30 04:34N 55°51' E 012°41'1414.4
2015-Jun-30 03:34N 56°05' E 012°35'1413.9
2015-Jun-30 02:33N 56°13' E 012°15'1414.1
2015-Jun-30 01:33N 56°24' E 011°60'1818.0
2015-Jun-30 00:33N 56°42' E 011°53'1817.6
2015-Jun-29 23:33N 56°58' E 011°43'1817.6
2015-Jun-29 22:33N 57°15' E 011°32'1717.0
2015-Jun-29 21:34N 57°31' E 011°21'1716.7
2015-Jun-29 20:33N 57°45' E 011°04'1717.0
2015-Jun-29 19:33N 57°50' E 010°34'1818.2
2015-Jun-29 18:33N 57°52' E 010°00'3818.8
2015-Jun-29 16:33N 57°33' E 008°59'22818.5
2015-Jun-29 04:13N 54°29' E 004°56'1420.7
2015-Jun-29 03:33N 54°17' E 004°46'2120.6
2015-Jun-29 02:33N 53°57' E 004°37'14719.8
2015-Jun-28 19:07N 51°46' E 002°44'1119.4
2015-Jun-28 18:33N 51°35' E 002°43'1413.5
2015-Jun-28 17:33N 51°22' E 002°48'1414.2
2015-Jun-28 16:34N 51°23' E 003°10'3 2.5
2015-Jun-28 15:33N 51°20' E 003°12'0 0.0
2015-Jun-28 14:32N 51°20' E 003°12'0 0.0
2015-Jun-28 13:33N 51°20' E 003°12'0 0.0
2015-Jun-28 12:33N 51°20' E 003°12'0 0.0
2015-Jun-28 11:30N 51°20' E 003°12'0 0.0
2015-Jun-28 10:33N 51°20' E 003°12'0 0.0
2015-Jun-28 09:30N 51°20' E 003°12'0 0.0
2015-Jun-28 08:33N 51°20' E 003°12'0 0.0
2015-Jun-28 07:33N 51°20' E 003°12'0 0.0
2015-Jun-28 06:32N 51°20' E 003°12'0 0.3
2015-Jun-28 05:34N 51°21' E 003°12'8 8.0
2015-Jun-28 04:33N 51°24' E 003°00'1313.4
2015-Jun-28 03:34N 51°22' E 002°39'1312.6
2015-Jun-28 02:33N 51°19' E 002°20'1615.9
2015-Jun-28 01:33N 51°12' E 001°57'1717.2
2015-Jun-28 00:33N 51°01' E 001°36'1717.4
2015-Jun-27 23:33N 50°46' E 001°21'1717.3
2015-Jun-27 22:33N 50°33' E 001°04'1817.5
2015-Jun-27 21:33N 50°27' E 000°38'1817.9
2015-Jun-27 20:33N 50°23' E 000°11'1818.2
2015-Jun-27 19:33N 50°22' W 000°18'1918.9
2015-Jun-27 18:33N 50°30' W 000°44'1716.7
2015-Jun-27 17:33N 50°43' W 001°01'1211.8
2015-Jun-27 16:33N 50°48' W 001°17'8 8.0
2015-Jun-27 15:33N 50°54' W 001°26'0 0.3
2015-Jun-27 14:29N 50°54' W 001°26'0 0.0
2015-Jun-27 13:32N 50°54' W 001°26'0 0.0
2015-Jun-27 12:23N 50°54' W 001°26'0 0.0
2015-Jun-27 11:29N 50°54' W 001°26'0 0.0
2015-Jun-27 10:20N 50°54' W 001°26'0 0.0
2015-Jun-27 09:29N 50°54' W 001°26'0 0.0
2015-Jun-27 08:32N 50°54' W 001°26'0 0.0
2015-Jun-27 07:32N 50°54' W 001°26'0 0.0
2015-Jun-27 06:32N 50°54' W 001°26'0 0.0
2015-Jun-27 05:33N 50°54' W 001°26'7 6.6
2015-Jun-27 04:33N 50°50' W 001°18'1111.0
2015-Jun-27 03:33N 50°44' W 001°04'1211.9
2015-Jun-27 02:34N 50°37' W 000°49'1413.8
2015-Jun-27 01:33N 50°34' W 000°27'1717.3
2015-Jun-27 00:34N 50°33' W 000°00'1818.2
2015-Jun-26 23:33N 50°37' E 000°28'2019.6
2015-Jun-26 22:33N 50°45' E 000°56'1918.6
2015-Jun-26 21:34N 50°56' E 001°20'1817.6
2015-Jun-26 20:34N 51°09' E 001°39'1717.4
2015-Jun-26 19:34N 51°23' E 001°54'1918.5
2015-Jun-26 18:33N 51°38' E 002°13'2219.3
2015-Jun-26 17:26N 51°54' E 002°36'2120.2
2015-Jun-26 16:23N 52°15' E 002°38'1721.0
2015-Jun-26 15:33N 52°32' E 002°38'2120.8
2015-Jun-26 14:33N 52°53' E 002°38'2020.0
2015-Jun-26 13:33N 53°13' E 002°43'2019.5
2015-Jun-26 12:33N 53°31' E 002°54'1919.1
2015-Jun-26 11:34N 53°49' E 003°08'2019.5
2015-Jun-26 10:33N 54°05' E 003°27'1919.7
2015-Jun-26 09:33N 54°24' E 003°29'31820.4
2015-Jun-25 18:00N 59°42' E 004°00'   270 / 201020.110.8 1.011.0 6.814.0
2015-Jun-23 06:00N 66°06' E 010°12'143 6.0 010 / 171009.310.8 11.0 5.612.0
2015-Jun-22 06:17N 68°05' E 013°36'15611.2
2015-Jun-21 16:28N 69°47' E 019°04'6 6.4
2015-Jun-21 15:31N 69°41' E 018°60'0 0.0
2015-Jun-21 14:31N 69°41' E 018°60'0 0.0
2015-Jun-21 12:28N 69°41' E 018°60'0 0.0
2015-Jun-21 11:31N 69°41' E 018°60'0 0.0
2015-Jun-21 10:31N 69°41' E 018°60'0 0.0
2015-Jun-21 09:28N 69°41' E 018°60'0 0.0
2015-Jun-21 08:31N 69°41' E 018°60'0 0.0
2015-Jun-21 07:31N 69°41' E 018°60'0 0.3
2015-Jun-21 06:33N 69°40' E 018°60'  

Dump ship's entire track history